Time;durP1;ratioP1;P1;durP2;ratioP2;P2;SDS_P1;SDS_P2;PMS_P1;PMS_P2;Temp;Humidity;BMP_temperature;BMP_pressure;BME280_temperature;BME280_humidity;BME280_pressure;Samples;Min_cycle;Max_cycle;Signal;HPM_P1;HPM_P2
2023/03/15 00:02:23;;;;;;;3.80;2.10;;;3.70;99.90;;;;;;5071162;28;20449;-80
2023/03/15 00:04:53;;;;;;;2.73;1.50;;;3.80;99.90;;;;;;5070538;28;20455;-75
2023/03/15 00:07:24;;;;;;;3.87;1.50;;;3.80;99.90;;;;;;5065250;28;20465;-80
2023/03/15 00:09:51;;;;;;;2.80;1.80;;;3.80;79.00;;;;;;5070568;28;20813;-79
2023/03/15 00:12:21;;;;;;;7.03;1.83;;;4.00;1.00;;;;;;5071467;28;20434;-81
2023/03/15 00:14:48;;;;;;;1.63;1.47;;;4.20;1.00;;;;;;5071711;28;20928;-80
2023/03/15 00:17:15;;;;;;;3.00;1.40;;;4.20;1.00;;;;;;5071817;28;20449;-82
2023/03/15 00:19:42;;;;;;;1.43;1.30;;;3.70;1.00;;;;;;5071095;28;20448;-82
2023/03/15 00:22:09;;;;;;;2.00;1.47;;;3.90;1.00;;;;;;5070585;28;21079;-81
2023/03/15 00:24:36;;;;;;;3.53;2.30;;;4.00;1.00;;;;;;5071258;28;20441;-82
2023/03/15 00:27:04;;;;;;;3.13;1.47;;;4.30;1.00;;;;;;5070816;28;20489;-81
2023/03/15 00:29:33;;;;;;;5.07;1.73;;;4.10;1.00;;;;;;5070554;28;20460;-82
2023/03/15 00:31:59;;;;;;;7.73;2.57;;;3.80;80.50;;;;;;5060861;28;20453;-82
2023/03/15 00:34:26;;;;;;;2.83;2.37;;;4.00;99.90;;;;;;5071022;28;20450;-82
2023/03/15 00:36:56;;;;;;;2.03;1.23;;;4.10;99.90;;;;;;5069945;28;20475;-81
2023/03/15 00:39:24;;;;;;;1.50;1.40;;;3.90;1.00;;;;;;5070909;28;20534;-81
2023/03/15 00:41:55;;;;;;;2.10;1.47;;;3.80;1.00;;;;;;5070294;28;20449;-81
2023/03/15 00:44:22;;;;;;;3.87;2.00;;;4.20;1.00;;;;;;5074411;28;20853;-83
2023/03/15 00:46:50;;;;;;;2.00;1.80;;;4.40;99.90;;;;;;5074812;28;20484;-73
2023/03/15 00:49:18;;;;;;;1.87;1.57;;;4.50;99.90;;;;;;5074405;28;20442;-81
2023/03/15 00:51:44;;;;;;;2.80;2.00;;;4.30;99.90;;;;;;5075094;28;20462;-83
2023/03/15 00:54:12;;;;;;;10.70;3.13;;;4.30;1.00;;;;;;5074283;28;20445;-83
2023/03/15 00:56:40;;;;;;;2.23;1.90;;;4.50;99.90;;;;;;5075312;28;20468;-84
2023/03/15 00:59:07;;;;;;;3.20;2.40;;;4.60;70.90;;;;;;5074136;28;20494;-83
2023/03/15 01:01:34;;;;;;;0.90;0.80;;;4.00;1.00;;;;;;5075192;28;20473;-83
2023/03/15 01:04:02;;;;;;;6.93;1.30;;;3.80;99.90;;;;;;5074181;28;20933;-83
2023/03/15 01:06:29;;;;;;;3.20;1.50;;;3.70;1.00;;;;;;5074662;28;20473;-83
2023/03/15 01:08:56;;;;;;;2.30;1.40;;;3.90;1.00;;;;;;5073796;28;20864;-83
2023/03/15 01:11:25;;;;;;;1.77;1.50;;;4.10;1.00;;;;;;5074944;28;20794;-83
2023/03/15 01:13:52;;;;;;;2.03;1.70;;;4.10;99.90;;;;;;5074097;28;20445;-83
2023/03/15 01:16:19;;;;;;;3.33;2.03;;;4.20;99.90;;;;;;5074544;28;20445;-81
2023/03/15 01:18:46;;;;;;;3.00;1.47;;;4.10;99.90;;;;;;5074802;28;20902;-83
2023/03/15 01:21:16;;;;;;;2.53;0.97;;;4.10;1.00;;;;;;5074170;28;20438;-83
2023/03/15 01:23:43;;;;;;;10.60;2.10;;;4.30;1.00;;;;;;5074677;28;20439;-83
2023/03/15 01:26:12;;;;;;;4.23;1.27;;;4.20;1.00;;;;;;5074007;28;20851;-83
2023/03/15 01:28:39;;;;;;;1.80;1.20;;;4.10;99.90;;;;;;5074310;28;20483;-83
2023/03/15 01:31:06;;;;;;;1.03;0.90;;;3.80;1.00;;;;;;5073622;28;20442;-83
2023/03/15 01:33:33;;;;;;;1.50;1.20;;;3.80;99.90;;;;;;5074662;28;20441;-84
2023/03/15 01:36:02;;;;;;;8.43;1.57;;;3.90;1.00;;;;;;5073957;28;20445;-83
2023/03/15 01:38:31;;;;;;;3.50;1.50;;;4.00;99.90;;;;;;5073577;28;20438;-83
2023/03/15 01:40:58;;;;;;;3.10;1.37;;;4.10;1.00;;;;;;5073706;28;20437;-83
2023/03/15 01:43:27;;;;;;;2.60;1.50;;;4.00;1.00;;;;;;5073529;28;20792;-83
2023/03/15 01:46:17;;;;;;;3.53;1.40;;;3.80;99.90;;;;;;5072642;28;20461;-83
2023/03/15 01:48:48;;;;;;;6.93;1.80;;;3.60;1.00;;;;;;5074124;28;20438;-83
2023/03/15 01:51:20;;;;;;;3.60;1.83;;;3.60;1.00;;;;;;5073981;28;20442;-83
2023/03/15 01:53:54;;;;;;;2.13;1.43;;;3.50;99.90;;;;;;5073199;28;20442;-83
2023/03/15 01:56:22;;;;;;;1.93;1.23;;;3.60;1.00;;;;;;5074025;28;20789;-83
2023/03/15 01:58:52;;;;;;;2.27;1.87;;;3.60;99.90;;;;;;5072577;28;20438;-72
2023/03/15 02:01:20;;;;;;;4.20;1.43;;;3.60;1.00;;;;;;5062639;28;20951;-82
2023/03/15 02:03:51;;;;;;;1.97;1.60;;;3.40;99.90;;;;;;5071518;28;20844;-83
2023/03/15 02:06:22;;;;;;;4.67;1.10;;;3.50;99.90;;;;;;5073574;28;20960;-83
2023/03/15 02:08:54;;;;;;;11.73;2.17;;;3.40;99.90;;;;;;5073232;28;20450;-83
2023/03/15 02:11:24;;;;;;;0.93;0.80;;;3.70;99.90;;;;;;5073604;28;20777;-82
2023/03/15 02:13:52;;;;;;;2.30;1.10;;;3.70;99.90;;;;;;5072831;28;20449;-83
2023/03/15 02:16:21;;;;;;;3.00;1.80;;;3.60;99.90;;;;;;5073364;28;20441;-79
2023/03/15 02:18:49;;;;;;;4.07;1.17;;;3.60;1.00;;;;;;5072933;28;20951;-83
2023/03/15 02:21:30;;;;;;;2.70;0.70;;;3.50;1.00;;;;;;5073069;28;20920;-83
2023/03/15 02:24:08;;;;;;;1.10;1.00;;;3.60;1.00;;;;;;5073045;28;20448;-83
2023/03/15 02:26:42;;;;;;;5.33;1.50;;;3.40;1.00;;;;;;5073156;28;20483;-79
2023/03/15 02:29:10;;;;;;;2.60;1.43;;;3.40;99.90;;;;;;5072275;28;20441;-84
2023/03/15 02:31:37;;;;;;;1.00;0.70;;;3.30;1.00;;;;;;5063546;28;20822;-84
2023/03/15 02:34:06;;;;;;;1.90;1.17;;;3.50;1.00;;;;;;5072219;28;20443;-84
2023/03/15 02:36:35;;;;;;;1.33;1.10;;;3.60;99.90;;;;;;5073019;28;20441;-84
2023/03/15 02:39:13;;;;;;;2.97;1.17;;;3.50;99.90;;;;;;5071640;28;20799;-84
2023/03/15 02:41:42;;;;;;;1.53;1.07;;;3.30;21.60;;;;;;5072604;28;20433;-84
2023/03/15 02:44:16;;;;;;;3.17;0.97;;;3.20;99.90;;;;;;5072435;28;20690;-84
2023/03/15 02:46:43;;;;;;;1.20;0.50;;;2.80;1.00;;;;;;5072874;28;20477;-84
2023/03/15 02:49:12;;;;;;;1.90;1.10;;;2.80;1.00;;;;;;5071698;28;20445;-84
2023/03/15 02:51:39;;;;;;;1.83;1.33;;;2.60;99.90;;;;;;5072933;28;20449;-83
2023/03/15 02:54:05;;;;;;;2.27;1.23;;;2.50;1.00;;;;;;5072124;28;20446;-84
2023/03/15 02:56:32;;;;;;;0.87;0.57;;;2.50;1.00;;;;;;5073036;28;20796;-84
2023/03/15 02:58:59;;;;;;;0.80;0.60;;;2.60;1.00;;;;;;5071668;28;20490;-84
2023/03/15 03:01:28;;;;;;;4.20;1.30;;;2.70;7.00;;;;;;5073543;28;20902;-84
2023/03/15 03:03:55;;;;;;;1.47;1.37;;;2.50;1.00;;;;;;5071880;28;20446;-84
2023/03/15 03:06:21;;;;;;;0.90;0.60;;;2.70;1.00;;;;;;5071698;28;20448;-84
2023/03/15 03:08:49;;;;;;;1.27;1.03;;;2.50;1.00;;;;;;5072198;28;20437;-82
2023/03/15 03:11:16;;;;;;;1.03;0.87;;;2.60;1.00;;;;;;5072334;28;20909;-85
2023/03/15 03:13:43;;;;;;;1.27;0.97;;;2.70;20.00;;;;;;5072126;28;20528;-85
2023/03/15 03:16:10;;;;;;;0.70;0.53;;;2.60;22.70;;;;;;5071814;28;20459;-84
2023/03/15 03:18:41;;;;;;;0.83;0.80;;;2.20;12.90;;;;;;5072094;28;20440;-85
2023/03/15 03:21:08;;;;;;;0.73;0.60;;;2.20;99.90;;;;;;5072123;28;20438;-83
2023/03/15 03:23:36;;;;;;;2.70;0.67;;;2.10;99.90;;;;;;5072457;28;20805;-83
2023/03/15 03:26:04;;;;;;;2.67;0.70;;;2.00;99.90;;;;;;5071912;28;20867;-84
2023/03/15 03:28:32;;;;;;;0.80;0.70;;;1.90;99.90;;;;;;5072229;28;20481;-86
2023/03/15 03:30:59;;;;;;;1.10;0.83;;;1.90;99.90;;;;;;5071709;28;20490;-85
2023/03/15 03:33:26;;;;;;;3.43;1.13;;;1.90;99.90;;;;;;5072320;28;20449;-86
2023/03/15 03:36:02;;;;;;;2.40;1.20;;;1.80;99.90;;;;;;5071661;28;20447;-82
2023/03/15 03:38:29;;;;;;;7.90;0.80;;;2.00;99.90;;;;;;5071529;28;20947;-82
2023/03/15 03:40:56;;;;;;;0.70;0.60;;;2.00;99.90;;;;;;5071271;28;20444;-84
2023/03/15 03:43:23;;;;;;;2.70;1.03;;;1.70;99.90;;;;;;5072233;28;20451;-84
2023/03/15 03:45:49;;;;;;;4.23;1.20;;;1.70;99.90;;;;;;5071011;28;20480;-76
2023/03/15 03:48:16;;;;;;;1.23;0.83;;;1.80;99.90;;;;;;5071592;28;20504;-84
2023/03/15 03:50:43;;;;;;;2.60;1.57;;;1.60;99.90;;;;;;5071515;28;20448;-85
2023/03/15 03:53:11;;;;;;;2.93;1.10;;;1.70;99.90;;;;;;5071354;28;20444;-84
2023/03/15 03:55:38;;;;;;;0.67;0.43;;;1.90;99.90;;;;;;5071516;28;20449;-84
2023/03/15 03:58:05;;;;;;;0.80;0.60;;;2.00;99.90;;;;;;5070433;28;20809;-83
2023/03/15 04:00:32;;;;;;;4.10;0.77;;;1.80;99.90;;;;;;5066797;28;20461;-84
2023/03/15 04:03:00;;;;;;;0.83;0.60;;;1.80;99.90;;;;;;5062358;28;20455;-84
2023/03/15 04:05:27;;;;;;;1.17;0.70;;;1.80;99.90;;;;;;5070825;28;20986;-84
2023/03/15 04:07:54;;;;;;;1.50;0.83;;;1.90;99.90;;;;;;5070459;28;20513;-84
2023/03/15 04:10:25;;;;;;;0.93;0.83;;;1.80;99.90;;;;;;5071183;28;20450;-83
2023/03/15 04:12:53;;;;;;;2.20;0.70;;;1.50;99.90;;;;;;5071103;28;20469;-84
2023/03/15 04:15:21;;;;;;;1.00;0.90;;;1.50;99.90;;;;;;5071165;28;20449;-81
2023/03/15 04:17:48;;;;;;;1.17;1.07;;;1.70;99.90;;;;;;5070944;28;20506;-83
2023/03/15 04:20:16;;;;;;;1.60;1.13;;;1.70;99.90;;;;;;5071966;28;20804;-84
2023/03/15 04:22:48;;;;;;;1.67;0.90;;;1.90;99.90;;;;;;5071869;28;20455;-83
2023/03/15 04:25:15;;;;;;;1.00;0.87;;;1.90;99.90;;;;;;5075359;28;21042;-83
2023/03/15 04:27:43;;;;;;;0.80;0.70;;;1.70;99.90;;;;;;5080243;28;20479;-84
2023/03/15 04:30:12;;;;;;;0.70;0.50;;;1.70;99.90;;;;;;5083813;28;20455;-84
2023/03/15 04:32:38;;;;;;;1.37;1.10;;;1.70;99.90;;;;;;5085908;28;20447;-83
2023/03/15 04:35:06;;;;;;;1.57;1.00;;;1.60;99.90;;;;;;5085922;28;20452;-83
2023/03/15 04:37:32;;;;;;;1.13;0.93;;;1.60;99.90;;;;;;5087905;28;20455;-84
2023/03/15 04:40:00;;;;;;;0.80;0.60;;;1.60;99.90;;;;;;5086464;28;20566;-84
2023/03/15 04:42:26;;;;;;;5.20;0.70;;;1.40;99.90;;;;;;5088403;28;20449;-83
2023/03/15 04:44:55;;;;;;;1.37;0.83;;;1.30;99.90;;;;;;5088184;28;20563;-84
2023/03/15 04:47:22;;;;;;;0.90;0.83;;;1.50;99.90;;;;;;5084964;28;20816;-84
2023/03/15 04:49:49;;;;;;;2.83;1.80;;;1.40;99.90;;;;;;5078153;28;20454;-74
2023/03/15 04:52:16;;;;;;;9.80;1.27;;;1.40;99.90;;;;;;5078463;28;20473;-84
2023/03/15 04:54:42;;;;;;;3.57;1.10;;;1.80;99.90;;;;;;5073098;28;20463;-85
2023/03/15 04:57:09;;;;;;;5.40;1.00;;;1.90;99.90;;;;;;5071215;28;20452;-84
2023/03/15 04:59:36;;;;;;;2.83;1.00;;;1.60;99.90;;;;;;5071296;28;20445;-84
2023/03/15 05:02:04;;;;;;;1.00;0.90;;;1.60;99.90;;;;;;5070803;28;20882;-84
2023/03/15 05:04:31;;;;;;;1.10;0.83;;;1.50;99.90;;;;;;5071447;28;20439;-86
2023/03/15 05:06:58;;;;;;;1.97;1.17;;;1.70;99.90;;;;;;5070536;28;20436;-85
2023/03/15 05:09:25;;;;;;;1.13;0.70;;;1.80;99.90;;;;;;5070667;28;20447;-85
2023/03/15 05:11:51;;;;;;;1.17;0.70;;;1.60;99.90;;;;;;5070196;28;20447;-84
2023/03/15 05:14:18;;;;;;;1.37;0.93;;;1.50;99.90;;;;;;5070716;28;20457;-81
2023/03/15 05:16:47;;;;;;;1.53;0.97;;;1.60;99.90;;;;;;5070424;28;20448;-87
2023/03/15 05:19:15;;;;;;;1.77;0.97;;;1.60;99.90;;;;;;5071125;28;20472;-87
2023/03/15 05:21:42;;;;;;;1.30;1.10;;;1.50;99.90;;;;;;5071124;28;20471;-86
2023/03/15 05:24:08;;;;;;;3.10;1.77;;;1.60;99.90;;;;;;5070276;28;20609;-85
2023/03/15 05:26:35;;;;;;;1.63;0.80;;;1.50;99.90;;;;;;5070543;28;20444;-85
2023/03/15 05:29:02;;;;;;;1.10;1.00;;;1.40;99.90;;;;;;5071341;28;20465;-85
2023/03/15 05:31:35;;;;;;;2.20;1.20;;;1.50;99.90;;;;;;5074679;28;20527;-85
2023/03/15 05:34:06;;;;;;;1.40;1.30;;;1.60;99.90;;;;;;5067267;28;20446;-84
2023/03/15 05:36:34;;;;;;;2.90;2.30;;;1.60;99.90;;;;;;5061342;28;20788;-84
2023/03/15 05:39:03;;;;;;;1.93;1.10;;;1.60;54.20;;;;;;5073182;28;20796;-77
2023/03/15 05:41:30;;;;;;;1.10;0.70;;;1.60;99.90;;;;;;5071375;28;20444;-82
2023/03/15 05:43:57;;;;;;;3.00;0.97;;;1.50;99.90;;;;;;5073607;28;20449;-77
2023/03/15 05:46:24;;;;;;;1.80;1.07;;;1.60;99.90;;;;;;5075045;28;20475;-88
2023/03/15 05:48:52;;;;;;;1.27;1.07;;;1.30;99.90;;;;;;5073458;28;20480;-78
2023/03/15 05:51:19;;;;;;;5.87;1.43;;;1.20;99.90;;;;;;5074310;28;20438;-77
2023/03/15 05:53:47;;;;;;;1.47;1.37;;;1.40;99.90;;;;;;5074331;28;20449;-78
2023/03/15 05:56:14;;;;;;;1.60;1.50;;;1.70;99.90;;;;;;5074232;28;20800;-84
2023/03/15 05:58:41;;;;;;;3.13;1.17;;;1.60;99.90;;;;;;5073598;28;20450;-77
2023/03/15 06:01:08;;;;;;;1.73;1.63;;;1.40;99.90;;;;;;5073186;28;20445;-82
2023/03/15 06:03:34;;;;;;;2.03;1.83;;;1.20;99.90;;;;;;5074069;28;20460;-80
2023/03/15 06:06:02;;;;;;;6.97;3.43;;;1.60;99.90;;;;;;5072771;28;20917;-82
2023/03/15 06:08:29;;;;;;;4.13;2.03;;;2.00;99.90;;;;;;5073363;28;20530;-82
2023/03/15 06:10:57;;;;;;;2.60;1.20;;;1.50;99.90;;;;;;5073195;28;20480;-82
2023/03/15 06:13:23;;;;;;;3.00;2.30;;;1.50;99.90;;;;;;5073496;28;20448;-83
2023/03/15 06:15:50;;;;;;;1.37;1.00;;;1.30;99.90;;;;;;5072690;28;20448;-83
2023/03/15 06:18:17;;;;;;;1.87;1.57;;;1.10;99.90;;;;;;5073427;28;20455;-78
2023/03/15 06:20:44;;;;;;;2.30;1.67;;;1.10;99.90;;;;;;5073600;28;20793;-78
2023/03/15 06:23:11;;;;;;;1.50;1.30;;;1.30;99.90;;;;;;5072766;28;20456;-80
2023/03/15 06:25:38;;;;;;;2.33;0.90;;;1.20;99.90;;;;;;5073962;28;20441;-73
2023/03/15 06:28:06;;;;;;;2.13;1.60;;;1.40;99.90;;;;;;5072251;28;20485;-72
2023/03/15 06:30:33;;;;;;;2.10;1.60;;;1.50;99.90;;;;;;5073485;28;20441;-72
2023/03/15 06:33:00;;;;;;;2.87;1.80;;;1.70;99.90;;;;;;5072474;28;20953;-72
2023/03/15 06:35:26;;;;;;;4.13;2.33;;;2.00;43.90;;;;;;5073485;28;20448;-78
2023/03/15 06:37:53;;;;;;;1.60;1.20;;;3.00;1.00;;;;;;5071675;28;20453;-79
2023/03/15 06:40:20;;;;;;;3.63;2.17;;;2.30;99.90;;;;;;5071502;28;20453;-71
2023/03/15 06:42:47;;;;;;;2.23;1.40;;;2.30;99.90;;;;;;5072174;28;20449;-74
2023/03/15 06:45:16;;;;;;;5.43;1.47;;;2.30;1.00;;;;;;5072576;28;20515;-75
2023/03/15 06:47:43;;;;;;;2.20;2.03;;;2.20;65.90;;;;;;5072910;28;20481;-74
2023/03/15 06:50:11;;;;;;;1.13;0.73;;;2.30;1.00;;;;;;5072208;28;20441;-75
2023/03/15 06:52:38;;;;;;;2.80;1.30;;;2.50;99.90;;;;;;5072677;28;20456;-76
2023/03/15 06:55:06;;;;;;;1.03;0.93;;;2.70;24.60;;;;;;5071349;28;20446;-80
2023/03/15 06:57:32;;;;;;;7.20;2.03;;;2.80;99.90;;;;;;5072014;28;20441;-70
2023/03/15 06:59:59;;;;;;;1.23;1.03;;;2.80;1.00;;;;;;5071610;28;20438;-78
2023/03/15 07:02:32;;;;;;;4.30;2.13;;;2.80;99.90;;;;;;5066149;28;20448;-79
2023/03/15 07:05:00;;;;;;;3.20;1.30;;;3.00;3.20;;;;;;5072267;28;20468;-79
2023/03/15 07:07:26;;;;;;;2.47;1.20;;;2.90;99.90;;;;;;5072709;28;20459;-79
2023/03/15 07:09:53;;;;;;;1.43;1.00;;;3.00;38.10;;;;;;5071599;28;20448;-78
2023/03/15 07:12:20;;;;;;;2.20;1.57;;;3.00;81.20;;;;;;5072430;28;20438;-77
2023/03/15 07:14:48;;;;;;;2.87;1.03;;;3.20;1.00;;;;;;5072422;28;20449;-78
2023/03/15 07:17:15;;;;;;;3.83;0.90;;;3.20;1.00;;;;;;5072886;28;20828;-78
2023/03/15 07:19:43;;;;;;;1.80;1.00;;;3.10;99.90;;;;;;5072455;28;20448;-78
2023/03/15 07:22:10;;;;;;;1.10;0.90;;;3.10;1.00;;;;;;5071576;28;20441;-78
2023/03/15 07:24:38;;;;;;;1.93;1.70;;;3.20;1.00;;;;;;5071933;28;20450;-78
2023/03/15 07:27:05;;;;;;;2.43;1.83;;;3.20;99.90;;;;;;5071850;28;20441;-78
2023/03/15 07:29:32;;;;;;;1.17;1.07;;;3.40;99.90;;;;;;5072196;28;20495;-77
2023/03/15 07:32:00;;;;;;;1.40;1.30;;;3.50;99.90;;;;;;5070995;28;20495;-77
2023/03/15 07:34:27;;;;;;;0.83;0.67;;;3.60;99.90;;;;;;5072292;28;20449;-77
2023/03/15 07:36:55;;;;;;;3.60;1.50;;;3.70;99.90;;;;;;5071766;28;20537;-77
2023/03/15 07:39:24;;;;;;;3.00;1.17;;;3.70;99.90;;;;;;5072118;28;20904;-77
2023/03/15 07:41:52;;;;;;;3.33;1.00;;;3.70;3.20;;;;;;5071267;28;20532;-77
2023/03/15 07:44:18;;;;;;;3.80;2.03;;;3.80;28.30;;;;;;5072166;28;20447;-75
2023/03/15 07:46:45;;;;;;;2.80;1.40;;;3.90;1.00;;;;;;5072474;28;20471;-77
2023/03/15 07:49:12;;;;;;;2.20;1.07;;;3.90;1.00;;;;;;5071248;28;20488;-77
2023/03/15 07:51:41;;;;;;;1.70;1.43;;;3.70;1.00;;;;;;5070937;28;20446;-77
2023/03/15 07:54:09;;;;;;;2.13;1.30;;;3.80;99.90;;;;;;5070686;28;20460;-76
2023/03/15 07:56:36;;;;;;;1.70;1.10;;;4.10;38.20;;;;;;5071768;28;20437;-76
2023/03/15 07:59:03;;;;;;;1.33;1.20;;;4.10;1.00;;;;;;5070765;28;20446;-76
2023/03/15 08:01:30;;;;;;;0.93;0.67;;;3.90;1.00;;;;;;5071073;28;20437;-76
2023/03/15 08:03:56;;;;;;;1.83;1.50;;;4.00;1.00;;;;;;5070701;28;20468;-76
2023/03/15 08:06:24;;;;;;;1.77;1.30;;;4.00;1.00;;;;;;5071794;28;20442;-76
2023/03/15 08:08:51;;;;;;;1.47;0.87;;;4.00;1.00;;;;;;5071012;28;20548;-76
2023/03/15 08:11:19;;;;;;;11.53;1.73;;;4.30;99.90;;;;;;5071028;28;20441;-76
2023/03/15 08:13:46;;;;;;;1.00;0.90;;;4.40;99.90;;;;;;5071200;28;20510;-76
2023/03/15 08:16:12;;;;;;;4.63;0.87;;;4.20;1.00;;;;;;5070982;28;20786;-76
2023/03/15 08:18:39;;;;;;;1.50;1.30;;;4.30;1.00;;;;;;5071102;28;20455;-76
2023/03/15 08:21:06;;;;;;;1.10;0.80;;;4.50;21.90;;;;;;5070539;28;20454;-76
2023/03/15 08:23:33;;;;;;;3.93;1.37;;;4.40;1.00;;;;;;5058089;28;20464;-76
2023/03/15 08:26:00;;;;;;;1.50;0.97;;;4.70;1.00;;;;;;5070873;28;20428;-76
2023/03/15 08:28:28;;;;;;;1.83;1.20;;;4.80;1.00;;;;;;5058222;28;20554;-76
2023/03/15 08:30:55;;;;;;;1.30;1.20;;;4.90;1.00;;;;;;5070653;28;20774;-76
2023/03/15 08:33:22;;;;;;;1.00;0.90;;;4.80;1.00;;;;;;5071526;28;20813;-75
2023/03/15 08:35:52;;;;;;;1.00;0.90;;;4.90;1.00;;;;;;5071199;28;20447;-71
2023/03/15 08:38:19;;;;;;;1.40;0.97;;;5.10;1.00;;;;;;5071508;28;20536;-75
2023/03/15 08:40:46;;;;;;;1.30;1.00;;;5.20;99.90;;;;;;5070540;28;20440;-76
2023/03/15 08:43:13;;;;;;;1.40;0.93;;;5.30;99.90;;;;;;5070765;28;20447;-76
2023/03/15 08:45:41;;;;;;;1.33;1.20;;;5.30;99.90;;;;;;5071087;28;20480;-75
2023/03/15 08:48:13;;;;;;;5.87;1.40;;;;;;;;;;5070597;28;20449;-75
2023/03/15 08:50:40;;;;;;;3.23;1.97;;;;;;;;;;5070740;28;20437;-76
2023/03/15 08:53:07;;;;;;;1.13;0.90;;;;;;;;;;5070523;28;20441;-75
2023/03/15 08:55:35;;;;;;;0.80;0.70;;;;;;;;;;5070867;28;20839;-75
2023/03/15 08:58:03;;;;;;;0.80;0.60;;;;;;;;;;5070543;28;20438;-78
2023/03/15 09:00:30;;;;;;;1.43;1.00;;;;;;;;;;5070326;28;20980;-76
2023/03/15 09:02:58;;;;;;;1.37;0.93;;;;;;;;;;5070546;28;20445;-76
2023/03/15 09:05:26;;;;;;;1.00;0.83;;;5.70;99.90;;;;;;5074431;28;20924;-76
2023/03/15 09:07:52;;;;;;;1.80;0.80;;;5.40;99.90;;;;;;5074409;28;20441;-75
2023/03/15 09:10:20;;;;;;;2.20;0.77;;;5.70;99.90;;;;;;5074273;28;20826;-74
2023/03/15 09:12:51;;;;;;;1.40;1.30;;;5.80;99.90;;;;;;5075181;28;20441;-77
2023/03/15 09:15:18;;;;;;;2.80;1.10;;;5.90;99.90;;;;;;5075177;28;20495;-76
2023/03/15 09:17:45;;;;;;;1.57;0.90;;;5.80;99.90;;;;;;5075006;28;20449;-76
2023/03/15 09:20:15;;;;;;;1.57;0.90;;;5.90;99.90;;;;;;5073857;28;20452;-76
2023/03/15 09:22:42;;;;;;;2.83;1.30;;;5.90;99.90;;;;;;5074711;28;20437;-76
2023/03/15 09:25:10;;;;;;;1.63;0.80;;;6.00;99.90;;;;;;5073690;28;20445;-75
2023/03/15 09:27:37;;;;;;;3.80;1.13;;;6.00;99.90;;;;;;5074427;28;20433;-75
2023/03/15 09:30:05;;;;;;;3.73;1.07;;;6.00;99.90;;;;;;5073447;28;20473;-76
2023/03/15 09:32:34;;;;;;;1.67;1.00;;;6.20;99.90;;;;;;5074416;28;20465;-76
2023/03/15 09:35:02;;;;;;;1.10;0.70;;;6.20;99.90;;;;;;5074035;28;20468;-76
2023/03/15 09:37:30;;;;;;;2.70;1.00;;;6.20;99.90;;;;;;5074397;28;20449;-76
2023/03/15 09:39:57;;;;;;;0.97;0.73;;;6.30;99.90;;;;;;5073361;28;20449;-76
2023/03/15 09:42:29;;;;;;;9.53;1.27;;;6.30;99.90;;;;;;5074316;28;20796;-76
2023/03/15 09:45:07;;;;;;;2.73;1.60;;;6.10;99.90;;;;;;5073230;28;20473;-76
2023/03/15 09:47:40;;;;;;;4.73;1.63;;;6.10;99.90;;;;;;5074483;28;20441;-76
2023/03/15 09:50:18;;;;;;;1.90;1.03;;;6.20;99.90;;;;;;5073300;28;20469;-76
2023/03/15 09:52:50;;;;;;;3.50;0.83;;;6.20;99.90;;;;;;5060994;28;20437;-76
2023/03/15 09:55:20;;;;;;;4.10;1.63;;;6.30;99.90;;;;;;5074217;28;20456;-76
2023/03/15 09:57:51;;;;;;;1.03;0.93;;;6.40;99.90;;;;;;5074536;28;20442;-76
2023/03/15 10:00:21;;;;;;;2.30;0.80;;;6.40;99.90;;;;;;5073922;28;20532;-76
2023/03/15 10:02:55;;;;;;;2.60;0.90;;;6.50;99.90;;;;;;5073878;28;20508;-76
2023/03/15 10:05:31;;;;;;;3.40;0.97;;;6.50;99.90;;;;;;5073573;28;20429;-76
2023/03/15 10:07:59;;;;;;;0.83;0.60;;;6.70;99.90;;;;;;5073203;28;20448;-75
2023/03/15 10:10:32;;;;;;;1.30;0.80;;;6.70;99.90;;;;;;5073074;28;20477;-76
2023/03/15 10:13:08;;;;;;;0.97;0.70;;;6.80;99.90;;;;;;5073232;28;20457;-78
2023/03/15 10:15:46;;;;;;;2.23;1.07;;;6.90;99.90;;;;;;5073303;28;20455;-76
2023/03/15 10:18:39;;;;;;;2.63;1.33;;;7.10;99.90;;;;;;5073415;28;20433;-76
2023/03/15 10:21:12;;;;;;;0.90;0.70;;;7.30;99.90;;;;;;5072311;28;20445;-76
2023/03/15 10:23:48;;;;;;;0.67;0.53;;;7.00;99.30;;;;;;5073572;28;20777;-76
2023/03/15 10:26:21;;;;;;;1.10;0.60;;;7.10;99.70;;;;;;5073367;28;20449;-76
2023/03/15 10:28:48;;;;;;;1.10;0.80;;;7.30;99.20;;;;;;5073561;28;20448;-75
2023/03/15 10:31:20;;;;;;;3.80;0.93;;;7.30;95.00;;;;;;5072680;28;20437;-76
2023/03/15 10:33:49;;;;;;;0.60;0.40;;;6.90;87.30;;;;;;5074426;28;20433;-75
2023/03/15 10:36:18;;;;;;;2.80;0.97;;;6.70;83.90;;;;;;5076553;28;20774;-78
2023/03/15 10:38:49;;;;;;;1.57;0.87;;;6.70;91.30;;;;;;5073493;28;20446;-78
2023/03/15 10:41:28;;;;;;;0.77;0.70;;;7.00;92.20;;;;;;5072726;28;20441;-76
2023/03/15 10:44:00;;;;;;;6.60;1.10;;;7.50;97.20;;;;;;5072301;28;20931;-76
2023/03/15 10:46:28;;;;;;;0.90;0.50;;;7.80;84.80;;;;;;5073399;28;20465;-75
2023/03/15 10:48:58;;;;;;;1.83;1.23;;;7.50;72.60;;;;;;5072253;28;20437;-76
2023/03/15 10:51:27;;;;;;;12.60;0.83;;;7.50;75.20;;;;;;5072594;28;20441;-76
2023/03/15 10:53:58;;;;;;;0.70;0.60;;;7.70;72.30;;;;;;5072170;28;20445;-78
2023/03/15 10:56:26;;;;;;;0.90;0.80;;;7.70;74.20;;;;;;5072714;28;20444;-76
2023/03/15 10:58:55;;;;;;;1.50;0.70;;;8.00;72.70;;;;;;5072144;28;20449;-76
2023/03/15 11:01:25;;;;;;;2.07;0.60;;;8.10;70.80;;;;;;5072238;28;20434;-76
2023/03/15 11:04:15;;;;;;;1.10;0.90;;;8.20;68.10;;;;;;5072046;28;20441;-78
2023/03/15 11:06:46;;;;;;;0.90;0.70;;;8.10;64.80;;;;;;5072548;28;20434;-76
2023/03/15 11:09:15;;;;;;;2.90;0.80;;;8.00;62.20;;;;;;5071774;28;20465;-76
2023/03/15 11:11:54;;;;;;;1.23;0.70;;;7.70;59.60;;;;;;5072053;28;20535;-77
2023/03/15 11:14:21;;;;;;;2.67;0.70;;;7.60;61.60;;;;;;5072236;28;20441;-76
2023/03/15 11:16:50;;;;;;;1.10;0.73;;;7.60;61.10;;;;;;5072132;28;20928;-72
2023/03/15 11:19:20;;;;;;;1.60;0.80;;;7.60;63.10;;;;;;5072678;28;20810;-76
2023/03/15 11:21:48;;;;;;;0.77;0.60;;;7.70;65.20;;;;;;5071903;28;20970;-76
2023/03/15 11:24:24;;;;;;;0.80;0.50;;;7.80;64.90;;;;;;5072557;28;20444;-76
2023/03/15 11:26:54;;;;;;;1.27;0.60;;;7.80;61.00;;;;;;5070690;28;20520;-76
2023/03/15 11:29:26;;;;;;;1.40;0.80;;;7.70;57.60;;;;;;5071898;28;20815;-79
2023/03/15 11:31:55;;;;;;;0.60;0.40;;;7.70;54.50;;;;;;5071299;28;20444;-76
2023/03/15 11:34:38;;;;;;;9.93;0.97;;;7.80;53.40;;;;;;5072033;28;20442;-75
2023/03/15 11:37:15;;;;;;;3.20;0.90;;;7.90;54.70;;;;;;5071409;28;20438;-76
2023/03/15 11:39:48;;;;;;;2.13;1.07;;;8.10;52.30;;;;;;5071504;28;20441;-76
2023/03/15 11:42:21;;;;;;;1.00;0.80;;;7.90;49.10;;;;;;5072033;28;20437;-76
2023/03/15 11:44:53;;;;;;;2.00;0.50;;;7.80;49.50;;;;;;5071506;28;20453;-71
2023/03/15 11:47:31;;;;;;;0.90;0.70;;;7.80;46.10;;;;;;5071839;28;20441;-76
2023/03/15 11:49:58;;;;;;;1.20;0.80;;;7.80;44.30;;;;;;5070904;28;20469;-76
2023/03/15 11:52:28;;;;;;;2.10;1.23;;;7.80;45.60;;;;;;5071664;28;20442;-76
2023/03/15 11:54:58;;;;;;;0.63;0.57;;;7.70;35.90;;;;;;5071133;28;20448;-75
2023/03/15 11:57:43;;;;;;;0.60;0.50;;;7.80;36.80;;;;;;5071625;28;20447;-75
2023/03/15 12:00:45;;;;;;;1.00;0.80;;;7.90;28.30;;;;;;5070723;28;20481;-76
2023/03/15 12:03:38;;;;;;;1.50;0.60;;;7.70;22.20;;;;;;5058188;28;20437;-76
2023/03/15 12:06:11;;;;;;;1.07;0.80;;;7.70;20.60;;;;;;5071155;28;20442;-75
2023/03/15 12:08:49;;;;;;;0.60;0.60;;;7.80;19.80;;;;;;5071548;28;20779;-76
2023/03/15 12:11:39;;;;;;;1.10;0.70;;;8.10;19.40;;;;;;5071301;28;20469;-76
2023/03/15 12:14:21;;;;;;;4.70;0.60;;;8.10;16.90;;;;;;5070916;28;20454;-75
2023/03/15 12:16:48;;;;;;;4.00;0.77;;;8.10;17.80;;;;;;5071645;28;20525;-71
2023/03/15 12:19:18;;;;;;;3.07;0.70;;;8.30;19.00;;;;;;5071724;28;20441;-76
2023/03/15 12:21:47;;;;;;;0.70;0.50;;;8.20;17.20;;;;;;5071061;28;20445;-76
2023/03/15 12:24:23;;;;;;;0.70;0.60;;;8.30;19.50;;;;;;5071252;28;20448;-76
2023/03/15 12:27:00;;;;;;;1.10;0.70;;;8.50;17.10;;;;;;5070777;28;20774;-74
2023/03/15 12:29:31;;;;;;;1.63;0.80;;;8.60;17.60;;;;;;5071030;28;20784;-76
2023/03/15 12:32:06;;;;;;;0.80;0.60;;;8.70;15.90;;;;;;5070528;28;20928;-76
2023/03/15 12:34:43;;;;;;;1.30;0.60;;;8.90;15.50;;;;;;5070986;28;20916;-76
2023/03/15 12:37:16;;;;;;;0.60;0.40;;;9.00;14.00;;;;;;5070613;28;20437;-76
2023/03/15 12:39:46;;;;;;;1.10;0.70;;;9.20;13.50;;;;;;5057822;28;20440;-75
2023/03/15 12:43:09;;;;;;;1.30;0.80;;;9.40;14.10;;;;;;5071132;28;20451;-76
2023/03/15 12:45:38;;;;;;;0.77;0.67;;;9.20;9.10;;;;;;5070909;28;20473;-76
2023/03/15 12:48:27;;;;;;;0.83;0.60;;;9.00;12.90;;;;;;5070742;28;20433;-76
2023/03/15 12:51:03;;;;;;;1.40;0.83;;;8.80;10.20;;;;;;5069920;28;20465;-76
2023/03/15 12:53:40;;;;;;;1.00;0.90;;;8.60;11.20;;;;;;5070946;28;21011;-74
2023/03/15 12:56:42;;;;;;;1.90;0.60;;;8.50;11.20;;;;;;5058804;28;20525;-74
2023/03/15 12:59:27;;;;;;;1.20;0.57;;;8.60;14.30;;;;;;5057262;28;20446;-75
2023/03/15 13:01:55;;;;;;;2.20;0.80;;;8.50;13.10;;;;;;5070402;28;20426;-75
2023/03/15 13:04:22;;;;;;;1.00;0.70;;;8.60;16.40;;;;;;5070711;28;20456;-75
2023/03/15 13:06:56;;;;;;;0.70;0.70;;;8.30;17.60;;;;;;5070419;28;20787;-74
2023/03/15 13:09:44;;;;;;;2.17;1.20;;;8.20;18.00;;;;;;5070691;28;20437;-76
2023/03/15 13:12:17;;;;;;;1.63;0.97;;;8.00;22.50;;;;;;5070266;28;20787;-75
2023/03/15 13:14:52;;;;;;;0.97;0.83;;;8.20;36.60;;;;;;5070679;28;20449;-75